Time;durP1;ratioP1;P1;durP2;ratioP2;P2;SDS_P1;SDS_P2;PMS_P1;PMS_P2;Temp;Humidity;BMP_temperature;BMP_pressure;BME280_temperature;BME280_humidity;BME280_pressure;Samples;Min_cycle;Max_cycle;Signal;HPM_P1;HPM_P2
2023/01/04 00:01:26;;;;;;;9.52;4.57;;;;;;;4.90;86.21;99665.03;5029561;28;20036;-81
2023/01/04 00:03:51;;;;;;;6.63;3.97;;;;;;;4.89;85.90;99666.84;5026884;28;20033;-80
2023/01/04 00:06:17;;;;;;;8.70;4.63;;;;;;;4.12;88.07;99649.28;5026382;28;20032;-80
2023/01/04 00:08:43;;;;;;;9.00;3.65;;;;;;;5.03;86.83;99658.00;5024326;28;20099;-80
2023/01/04 00:11:17;;;;;;;5.35;3.45;;;;;;;4.92;86.59;99655.06;5029552;28;20037;-81
2023/01/04 00:13:44;;;;;;;9.05;3.78;;;;;;;4.61;87.92;99652.00;5009861;28;20045;-81
2023/01/04 00:16:12;;;;;;;7.68;4.30;;;;;;;4.75;87.32;99654.53;5023378;28;20037;-80
2023/01/04 00:18:38;;;;;;;8.38;3.47;;;;;;;4.74;86.46;99644.97;5020756;28;20034;-81
2023/01/04 00:21:14;;;;;;;6.95;3.63;;;;;;;4.70;87.37;99648.19;5011466;28;20393;-81
2023/01/04 00:23:40;;;;;;;;;;;;;;;4.87;87.05;99638.97;5027540;28;20503;-80
2023/01/04 00:26:12;;;;;;;7.57;2.75;;;;;;;4.99;86.17;99640.06;5026789;28;20000;-80
2023/01/04 00:28:37;;;;;;;7.88;3.30;;;;;;;5.03;86.01;99622.78;5023637;28;20069;-80
2023/01/04 00:31:04;;;;;;;7.15;2.97;;;;;;;4.94;86.97;99610.72;5026465;28;20048;-80
2023/01/04 00:33:30;;;;;;;5.88;3.22;;;;;;;5.00;85.74;99610.78;5024692;28;20025;-80
2023/01/04 00:36:01;;;;;;;8.35;4.15;;;;;;;5.18;85.89;99613.75;5025241;28;20029;-80
2023/01/04 00:38:26;;;;;;;6.72;3.72;;;;;;;5.12;86.39;99613.69;5011522;28;20034;-81
2023/01/04 00:40:52;;;;;;;8.07;4.38;;;;;;;5.07;86.09;99595.75;4992726;28;20386;-80
2023/01/04 00:43:17;;;;;;;11.40;5.05;;;;;;;4.96;86.90;99582.25;5003189;28;20385;-80
2023/01/04 00:45:42;;;;;;;7.35;3.80;;;;;;;5.31;85.38;99594.47;5014667;28;20065;-80
2023/01/04 00:48:08;;;;;;;9.82;4.50;;;;;;;4.98;85.81;99588.97;5011961;28;20029;-80
2023/01/04 00:50:33;;;;;;;11.10;4.20;;;;;;;5.21;85.45;99583.44;4997028;28;20037;-80
2023/01/04 00:52:58;;;;;;;4.60;3.58;;;;;;;5.16;85.78;99577.91;5023099;28;20041;-80
2023/01/04 00:55:24;;;;;;;10.68;4.28;;;;;;;5.24;85.42;99575.91;5011098;28;20130;-80
2023/01/04 00:57:49;;;;;;;9.57;4.75;;;;;;;5.22;86.05;99572.63;5012199;28;21354;-82
2023/01/04 01:00:15;;;;;;;12.52;4.80;;;;;;;4.99;86.32;99568.66;5027877;28;20029;-82
2023/01/04 01:02:40;;;;;;;12.40;3.95;;;;;;;4.89;87.05;99576.91;5010730;28;20029;-81
2023/01/04 01:05:06;;;;;;;11.95;4.63;;;;;;;5.13;86.67;99570.38;5014113;28;20057;-81
2023/01/04 01:07:32;;;;;;;12.85;3.78;;;;;;;5.28;85.68;99563.13;5012530;28;20124;-81
2023/01/04 01:09:57;;;;;;;6.18;3.53;;;;;;;5.14;86.22;99558.75;5014653;28;20573;-80
2023/01/04 01:12:22;;;;;;;12.07;4.75;;;;;;;5.18;86.42;99547.59;5015889;28;20480;-80
2023/01/04 01:14:48;;;;;;;9.23;4.03;;;;;;;5.08;86.10;99527.81;4998042;28;20033;-80
2023/01/04 01:17:13;;;;;;;18.33;5.72;;;;;;;5.26;85.56;99557.19;5029610;28;20034;-80
2023/01/04 01:19:38;;;;;;;11.05;3.72;;;;;;;5.14;86.85;99549.00;5013377;28;20025;-80
2023/01/04 01:22:03;;;;;;;7.90;4.65;;;;;;;5.19;86.74;99556.34;5030483;28;20489;-80
2023/01/04 01:24:29;;;;;;;6.97;4.57;;;;;;;5.09;86.89;99542.66;5031466;28;20071;-80
2023/01/04 01:26:55;;;;;;;6.22;5.18;;;;;;;5.18;86.59;99547.59;5007030;28;20037;-80
2023/01/04 01:29:20;;;;;;;7.18;3.38;;;;;;;5.16;86.91;99540.84;5028092;28;20021;-80
2023/01/04 01:31:45;;;;;;;6.03;3.65;;;;;;;5.10;86.88;99536.34;5027000;28;20056;-80
2023/01/04 01:34:11;;;;;;;6.57;4.00;;;;;;;5.13;86.83;99533.31;5028042;28;20523;-81
2023/01/04 01:36:36;;;;;;;6.25;3.05;;;;;;;5.26;85.52;99536.03;5006203;28;20100;-81
2023/01/04 01:39:03;;;;;;;8.32;4.35;;;;;;;5.25;86.07;99537.84;5043461;28;20025;-80
2023/01/04 01:41:32;;;;;;;9.38;4.80;;;;;;;5.18;87.02;99523.78;5029935;28;20029;-80
2023/01/04 01:43:59;;;;;;;7.22;3.72;;;;;;;5.24;85.94;99515.03;5034011;28;20396;-81
2023/01/04 01:46:24;;;;;;;7.45;3.58;;;;;;;5.35;85.87;99526.09;5009357;28;20042;-81
2023/01/04 01:48:53;;;;;;;9.27;3.65;;;;;;;5.44;85.70;99525.69;5035269;28;20032;-80
2023/01/04 01:51:18;;;;;;;5.45;3.20;;;;;;;5.30;86.15;99511.63;5029136;28;20485;-81
2023/01/04 01:53:46;;;;;;;5.50;2.70;;;;;;;5.31;86.22;99512.41;5013407;28;20043;-81
2023/01/04 01:56:16;;;;;;;6.32;3.65;;;;;;;5.35;86.09;99497.78;5028976;28;20081;-81
2023/01/04 01:58:49;;;;;;;7.60;3.75;;;;;;;5.37;85.53;99506.34;5029847;28;20033;-81
2023/01/04 02:01:14;;;;;;;3.92;3.05;;;;;;;5.33;85.96;99497.97;5028894;28;20523;-80
2023/01/04 02:03:41;;;;;;;4.30;2.88;;;;;;;5.30;85.89;99487.81;5030116;28;20108;-80
2023/01/04 02:06:10;;;;;;;6.72;3.20;;;;;;;5.24;86.22;99493.06;5026147;28;20056;-81
2023/01/04 02:08:38;;;;;;;11.82;3.20;;;;;;;5.29;86.25;99474.75;5048386;28;20022;-81
2023/01/04 02:11:04;;;;;;;3.78;2.65;;;;;;;5.21;86.17;99462.53;5032643;28;20398;-81
2023/01/04 02:16:36;;;;;;;6.35;2.42;;;;;;;5.28;85.80;99449.31;5029234;28;20524;-80
2023/01/04 02:19:21;;;;;;;4.63;2.42;;;;;;;5.08;86.16;99446.59;5025639;28;20045;-81
2023/01/04 02:22:23;;;;;;;6.63;2.58;;;;;;;5.22;86.54;99436.88;5030869;28;20032;-80
2023/01/04 02:25:04;;;;;;;6.13;3.08;;;;;;;5.34;86.73;99427.34;5033536;28;20036;-81
2023/01/04 02:27:32;;;;;;;6.10;2.95;;;;;;;5.32;85.90;99422.25;5031800;28;20029;-81
2023/01/04 02:30:41;;;;;;;7.60;3.13;;;;;;;5.27;85.97;99414.09;5023932;28;20030;-81
2023/01/04 02:33:44;;;;;;;13.80;3.13;;;;;;;5.27;85.67;99418.56;5029648;28;20038;-80
2023/01/04 02:36:18;;;;;;;5.00;2.47;;;;;;;5.23;85.84;99397.00;5031238;28;20083;-79
2023/01/04 02:38:55;;;;;;;8.75;3.13;;;;;;;5.39;85.94;99397.63;5045338;28;20409;-80
2023/01/04 02:41:46;;;;;;;6.47;3.38;;;;;;;5.26;85.69;99393.13;5026194;28;20398;-79
2023/01/04 02:44:53;;;;;;;7.32;2.65;;;;;;;5.31;85.82;99394.13;5024691;28;20152;-82
2023/01/04 02:50:36;;;;;;;7.22;2.70;;;;;;;5.35;86.46;99385.81;5028941;28;20039;-80
2023/01/04 02:53:11;;;;;;;4.90;2.35;;;;;;;5.25;86.59;99370.31;5029087;28;20025;-81
2023/01/04 02:55:55;;;;;;;10.73;3.13;;;;;;;5.32;86.68;99369.31;5031801;28;20037;-81
2023/01/04 02:58:32;;;;;;;8.38;3.13;;;;;;;5.25;86.75;99351.78;5028325;28;20025;-81
2023/01/04 03:07:01;;;;;;;8.82;2.85;;;;;;;5.48;86.07;99338.19;5027531;28;20088;-81
2023/01/04 03:09:32;;;;;;;6.13;2.50;;;;;;;5.35;86.10;99332.88;5029466;28;20140;-81
2023/01/04 03:15:17;;;;;;;8.02;2.85;;;;;;;5.38;86.34;99335.09;5030604;28;20507;-81
2023/01/04 03:17:56;;;;;;;10.07;3.90;;;;;;;5.39;86.05;99316.38;5028062;28;20021;-80
2023/01/04 03:20:24;;;;;;;7.25;2.70;;;;;;;5.37;85.81;99305.19;5025222;28;20029;-82
2023/01/04 03:36:59;;;;;;;5.10;2.10;;;;;;;5.59;85.53;99268.72;5028379;28;20035;-80
2023/01/04 03:48:43;;;;;;;4.97;1.95;;;;;;;5.55;86.32;99254.28;5028777;28;20068;-80
2023/01/04 03:51:20;;;;;;;6.90;2.78;;;;;;;5.53;86.84;99262.41;5010844;28;20037;-80
2023/01/04 03:53:58;;;;;;;12.73;2.75;;;;;;;5.68;87.13;99248.97;5027467;28;20057;-82
2023/01/04 03:56:27;;;;;;;8.50;3.17;;;;;;;5.61;86.99;99243.69;5026013;28;20047;-81
2023/01/04 03:58:53;;;;;;;5.40;2.80;;;;;;;5.54;87.26;99226.97;5027222;28;20071;-81
2023/01/04 04:01:20;;;;;;;5.70;2.10;;;;;;;5.47;87.95;99220.88;5012064;28;20274;-82
2023/01/04 04:09:14;;;;;;;4.20;1.98;;;;;;;5.50;88.45;99201.13;5021917;28;20032;-81
2023/01/04 04:11:39;;;;;;;6.72;2.63;;;;;;;5.43;87.79;99193.19;5010914;28;20022;-81
2023/01/04 04:14:04;;;;;;;5.55;2.83;;;;;;;5.53;87.91;99204.16;5025253;28;20112;-81
2023/01/04 04:16:30;;;;;;;4.30;2.60;;;;;;;5.53;88.56;99190.09;5011382;28;20660;-80
2023/01/04 04:18:55;;;;;;;5.28;3.10;;;;;;;5.44;88.97;99178.13;5023566;28;20497;-81
2023/01/04 04:21:21;;;;;;;2.17;1.98;;;;;;;5.50;88.90;99178.13;5024957;28;20462;-81
2023/01/04 04:23:46;;;;;;;2.88;1.80;;;;;;;5.48;88.89;99169.59;5027395;28;20059;-82
2023/01/04 04:26:11;;;;;;;5.95;2.90;;;;;;;5.44;89.01;99146.38;5023647;28;20021;-82
2023/01/04 04:28:38;;;;;;;6.82;3.15;;;;;;;5.55;89.07;99164.28;5024921;28;20104;-82
2023/01/04 04:31:03;;;;;;;12.88;2.75;;;;;;;5.46;89.24;99150.41;4996734;28;20090;-83
2023/01/04 04:33:29;;;;;;;8.00;3.03;;;;;;;5.44;89.22;99141.88;5030724;28;20093;-81
2023/01/04 04:35:54;;;;;;;4.50;2.53;;;;;;;5.50;89.50;99146.34;5011378;28;20036;-81
2023/01/04 04:38:21;;;;;;;2.80;2.22;;;;;;;5.55;89.41;99141.22;5005904;28;20497;-81
2023/01/04 04:43:32;;;;;;;7.40;2.70;;;;;;;5.56;89.85;99145.50;5029379;28;20151;-82
2023/01/04 04:45:57;;;;;;;6.18;2.05;;;;;;;5.51;89.08;99145.31;5011627;28;20029;-81
2023/01/04 04:48:23;;;;;;;3.53;1.83;;;;;;;5.52;89.39;99139.03;5030067;28;20048;-82
2023/01/04 04:50:48;;;;;;;7.88;3.35;;;;;;;5.42;90.26;99132.53;5012700;28;20520;-82
2023/01/04 04:53:13;;;;;;;10.57;3.38;;;;;;;5.54;89.64;99131.69;5027275;28;20504;-80
2023/01/04 04:55:39;;;;;;;9.52;3.45;;;;;;;5.58;89.65;99137.34;5028791;28;20029;-81
2023/01/04 04:58:04;;;;;;;7.25;3.00;;;;;;;5.58;89.80;99142.66;5011834;28;20400;-81
2023/01/04 05:00:29;;;;;;;5.65;2.92;;;;;;;5.55;89.17;99129.84;5030279;28;20159;-81
2023/01/04 05:02:59;;;;;;;8.30;3.85;;;;;;;5.57;88.97;99120.66;5009241;28;20041;-81
2023/01/04 05:05:25;;;;;;;7.88;3.22;;;;;;;5.43;90.77;99111.16;5028074;28;20492;-80
2023/01/04 05:07:50;;;;;;;8.13;3.00;;;;;;;5.68;89.57;99124.50;5028869;28;20026;-81
2023/01/04 05:10:15;;;;;;;5.68;2.95;;;;;;;5.62;89.15;99125.31;5022702;28;20048;-82
2023/01/04 05:12:59;;;;;;;9.48;3.42;;;;;;;5.52;90.79;99133.72;5026354;28;20152;-82
2023/01/04 05:15:36;;;;;;;11.52;3.90;;;;;;;5.53;90.35;99119.44;5028493;28;20234;-81
2023/01/04 05:18:02;;;;;;;4.93;3.28;;;;;;;5.65;90.08;99128.38;5023544;28;20034;-82
2023/01/04 05:20:28;;;;;;;4.18;3.33;;;;;;;5.52;89.92;99117.84;5025688;28;20033;-81
2023/01/04 05:22:54;;;;;;;6.88;3.15;;;;;;;5.57;90.23;99109.28;5024234;28;20033;-82
2023/01/04 05:25:19;;;;;;;5.55;3.05;;;;;;;5.57;90.05;99104.75;5027580;28;20048;-83
2023/01/04 05:27:45;;;;;;;8.63;3.58;;;;;;;5.45;90.88;99103.81;5025200;28;20517;-82
2023/01/04 05:32:56;;;;;;;10.05;4.30;;;;;;;5.58;89.68;99101.13;5027089;28;20067;-82
2023/01/04 05:35:21;;;;;;;8.20;3.40;;;;;;;5.52;89.88;99117.84;5028472;28;20101;-81
2023/01/04 05:37:47;;;;;;;4.50;2.55;;;;;;;5.48;91.29;99106.06;5012795;28;20137;-81
2023/01/04 05:40:12;;;;;;;9.02;3.95;;;;;;;5.47;90.89;99095.66;5024630;28;20072;-80
2023/01/04 05:42:38;;;;;;;7.75;3.10;;;;;;;5.48;90.65;99106.06;5008724;28;20610;-80
2023/01/04 05:45:04;;;;;;;6.05;4.30;;;;;;;5.52;90.40;99104.59;5023532;28;20037;-80
2023/01/04 05:47:29;;;;;;;8.80;5.05;;;;;;;5.29;91.36;99096.31;5025889;28;20057;-81
2023/01/04 05:49:55;;;;;;;7.78;3.75;;;;;;;5.48;90.48;99086.69;5010294;28;20067;-81
2023/01/04 05:52:20;;;;;;;7.68;4.90;;;;;;;5.59;90.22;99105.38;5028293;28;20026;-80
2023/01/04 05:54:45;;;;;;;5.07;3.75;;;;;;;5.49;90.48;99078.53;5029403;28;20116;-80
2023/01/04 05:57:11;;;;;;;8.30;4.55;;;;;;;5.47;91.32;99117.66;5012981;28;20121;-80
2023/01/04 05:59:37;;;;;;;6.05;4.78;;;;;;;5.48;90.63;99084.06;5032228;28;20033;-81
2023/01/04 06:02:03;;;;;;;5.70;4.55;;;;;;;5.54;91.01;99088.50;5011931;28;20371;-80
2023/01/04 06:04:29;;;;;;;7.50;3.80;;;;;;;5.52;89.99;99085.25;5030489;28;20036;-80
2023/01/04 06:06:54;;;;;;;9.13;4.10;;;;;;;5.44;90.65;99081.00;5027768;28;20108;-81
2023/01/04 06:09:19;;;;;;;11.82;5.22;;;;;;;5.41;91.09;99067.38;5031086;28;20067;-81
2023/01/04 06:11:45;;;;;;;7.75;5.15;;;;;;;5.40;90.53;99065.75;5013820;28;20041;-81
2023/01/04 06:14:10;;;;;;;6.70;5.72;;;;;;;5.47;91.13;99056.75;5012219;28;20033;-80
2023/01/04 06:16:35;;;;;;;6.95;3.28;;;;;;;5.51;90.90;99079.13;5011796;28;20034;-80
2023/01/04 06:19:01;;;;;;;3.65;2.80;;;;;;;5.46;90.88;99064.94;5022761;28;20103;-80
2023/01/04 06:21:27;;;;;;;8.27;5.10;;;;;;;5.42;91.03;99069.81;5030448;28;20095;-80
2023/01/04 06:23:52;;;;;;;9.73;5.22;;;;;;;5.44;91.19;99056.38;5013665;28;20021;-81
2023/01/04 06:26:18;;;;;;;6.68;5.43;;;;;;;5.53;91.03;99039.22;5013124;28;20021;-81
2023/01/04 06:28:44;;;;;;;9.07;5.10;;;;;;;5.43;91.40;99013.22;5024105;28;20408;-81
2023/01/04 06:31:10;;;;;;;8.77;5.18;;;;;;;5.33;91.72;98984.53;5028892;28;20044;-80
2023/01/04 06:33:36;;;;;;;8.73;4.78;;;;;;;5.21;92.92;98953.69;5032080;28;20531;-79
2023/01/04 06:36:03;;;;;;;8.30;4.93;;;;;;;5.27;92.59;98971.34;5031207;28;20025;-80
2023/01/04 06:38:30;;;;;;;13.45;5.05;;;;;;;5.41;92.27;99023.22;5010344;28;20059;-81
2023/01/04 06:40:55;;;;;;;12.73;5.38;;;;;;;5.28;92.52;99010.84;5031268;28;20025;-79
2023/01/04 06:43:20;;;;;;;5.57;3.72;;;;;;;5.36;92.67;99011.59;5032486;28;20048;-81
2023/01/04 06:45:46;;;;;;;9.85;5.80;;;;;;;5.32;92.75;98988.22;5012132;28;20061;-80
2023/01/04 06:48:12;;;;;;;10.35;4.95;;;;;;;5.33;92.43;98994.31;5022205;28;20493;-79
2023/01/04 06:50:37;;;;;;;8.77;6.40;;;;;;;5.44;92.38;98998.94;5009438;28;20128;-80
2023/01/04 06:53:02;;;;;;;9.52;5.07;;;;;;;5.40;91.48;98995.09;4987774;28;20084;-80
2023/01/04 06:55:30;;;;;;;6.18;3.17;;;;;;;5.48;91.10;98997.53;5010540;28;20061;-80
2023/01/04 06:57:56;;;;;;;7.82;5.85;;;;;;;5.43;91.97;98993.88;5048257;28;20043;-80
2023/01/04 07:00:22;;;;;;;8.70;6.40;;;;;;;5.37;92.15;98987.59;5028930;28;20033;-79
2023/01/04 07:02:47;;;;;;;7.45;5.85;;;;;;;5.50;91.56;99011.34;5022754;28;20024;-80
2023/01/04 07:05:13;;;;;;;11.50;6.45;;;;;;;5.39;92.02;98993.50;5031248;28;20400;-79
2023/01/04 07:07:38;;;;;;;7.70;5.60;;;;;;;5.33;92.07;98997.78;5027992;28;20033;-79
2023/01/04 07:10:04;;;;;;;6.72;4.10;;;;;;;5.42;91.21;98982.47;5045471;28;20485;-79
2023/01/04 07:12:30;;;;;;;7.18;5.40;;;;;;;5.41;91.93;98999.38;5028831;28;20030;-79
2023/01/04 07:14:56;;;;;;;6.35;5.40;;;;;;;5.41;92.33;98999.38;5029171;28;20057;-79
2023/01/04 07:17:21;;;;;;;4.78;3.60;;;;;;;5.43;91.58;99001.81;5022421;28;20395;-80
2023/01/04 07:19:46;;;;;;;8.63;5.40;;;;;;;5.34;92.92;99006.53;4982313;28;20100;-79
2023/01/04 07:22:12;;;;;;;7.85;5.90;;;;;;;5.36;91.66;99011.59;5024386;28;20154;-79
2023/01/04 07:24:37;;;;;;;6.57;4.93;;;;;;;5.36;92.16;98999.19;5032526;28;20086;-79
2023/01/04 07:27:02;;;;;;;8.82;4.45;;;;;;;5.39;91.96;99006.72;5029488;28;20048;-79
2023/01/04 07:29:28;;;;;;;12.05;5.70;;;;;;;5.43;92.36;98996.53;5029668;28;20033;-80
2023/01/04 07:31:53;;;;;;;9.43;5.75;;;;;;;5.38;92.32;98988.38;5043250;28;20384;-80
2023/01/04 07:34:22;;;;;;;8.45;4.72;;;;;;;5.37;91.86;98986.78;5028259;28;20462;-79
2023/01/04 07:36:48;;;;;;;8.60;5.47;;;;;;;5.48;91.41;98994.88;5025850;28;20124;-80
2023/01/04 07:39:15;;;;;;;7.82;5.43;;;;;;;5.48;92.38;98984.28;5027967;28;20036;-79
2023/01/04 07:41:41;;;;;;;11.10;6.63;;;;;;;5.43;91.94;98975.34;5028650;28;20408;-79
2023/01/04 07:44:07;;;;;;;8.20;6.22;;;;;;;5.48;91.34;98976.34;5027927;28;20029;-78
2023/01/04 07:46:33;;;;;;;6.57;4.47;;;;;;;5.49;91.72;98975.31;5025141;28;20033;-79
2023/01/04 07:48:59;;;;;;;10.38;3.97;;;;;;;5.43;92.46;98981.47;5028514;28;20113;-79
2023/01/04 07:51:25;;;;;;;10.35;5.85;;;;;;;5.34;92.76;98966.84;5026286;28;20466;-78
2023/01/04 07:53:50;;;;;;;5.72;3.53;;;;;;;5.56;91.98;98969.97;5024241;28;20030;-79
2023/01/04 07:56:16;;;;;;;9.38;6.07;;;;;;;5.52;91.97;98985.47;5023487;28;20530;-79
2023/01/04 07:58:41;;;;;;;8.68;5.15;;;;;;;5.48;92.27;98962.28;5025987;28;20034;-79
2023/01/04 08:01:07;;;;;;;9.27;6.00;;;;;;;5.47;91.59;98966.78;5023301;28;20079;-79
2023/01/04 08:03:33;;;;;;;5.07;4.30;;;;;;;5.55;91.99;98992.19;5039521;28;20444;-79
2023/01/04 08:06:03;;;;;;;9.50;5.35;;;;;;;5.46;92.12;98954.53;5027236;28;21475;-79
2023/01/04 08:08:28;;;;;;;7.43;5.43;;;;;;;5.56;91.97;98967.31;5016667;28;20033;-80
2023/01/04 08:10:54;;;;;;;8.73;5.15;;;;;;;5.58;92.31;98968.75;5022651;28;20051;-79
2023/01/04 08:13:19;;;;;;;6.20;5.47;;;;;;;5.55;91.96;98957.78;5019968;28;20115;-79
2023/01/04 08:15:52;;;;;;;7.50;5.60;;;;;;;5.60;91.75;98952.63;5018843;28;20041;-80
2023/01/04 08:18:17;;;;;;;7.93;5.22;;;;;;;5.55;91.61;98969.16;5021664;28;20032;-81
2023/01/04 08:20:42;;;;;;;10.48;4.60;;;;;;;5.51;91.84;98969.78;5019290;28;20025;-80
2023/01/04 08:23:08;;;;;;;10.18;5.13;;;;;;;5.59;91.96;98953.69;5025104;28;20481;-79
2023/01/04 08:25:33;;;;;;;9.55;4.55;;;;;;;5.56;92.53;98954.91;5024238;28;20382;-79
2023/01/04 08:27:58;;;;;;;8.57;4.80;;;;;;;5.52;92.17;98953.72;5025453;28;20070;-80
2023/01/04 08:30:24;;;;;;;7.78;5.70;;;;;;;5.68;92.03;98969.06;4990007;28;20165;-79
2023/01/04 08:32:49;;;;;;;7.53;5.63;;;;;;;5.60;91.64;98974.63;5018153;28;20067;-79
2023/01/04 08:35:15;;;;;;;7.07;5.78;;;;;;;5.49;92.56;98954.13;5022631;28;20033;-80
2023/01/04 08:37:40;;;;;;;8.00;6.00;;;;;;;5.59;92.78;98953.69;4980670;28;20034;-80
2023/01/04 08:40:06;;;;;;;7.78;6.35;;;;;;;5.59;92.52;98958.97;5031003;28;20381;-80
2023/01/04 08:42:31;;;;;;;6.22;4.82;;;;;;;5.63;92.96;98970.75;5024226;28;20025;-81
2023/01/04 08:44:59;;;;;;;10.75;6.70;;;;;;;5.59;92.87;98958.97;5024084;28;20029;-80
2023/01/04 08:47:25;;;;;;;12.10;6.72;;;;;;;5.72;92.46;98972.13;5008788;28;20507;-79
2023/01/04 08:49:50;;;;;;;9.63;5.72;;;;;;;5.75;92.58;98961.91;5030853;28;20115;-80
2023/01/04 08:52:15;;;;;;;9.35;7.53;;;;;;;5.64;92.70;98951.19;5025442;28;20508;-79
2023/01/04 08:54:41;;;;;;;9.88;5.95;;;;;;;5.66;92.91;98959.72;5005480;28;20500;-81
2023/01/04 08:57:06;;;;;;;8.45;6.80;;;;;;;5.72;93.19;98951.72;5031849;28;20030;-80
2023/01/04 08:59:32;;;;;;;14.65;6.85;;;;;;;5.65;92.86;98952.81;5025040;28;20042;-80
2023/01/04 09:01:57;;;;;;;9.52;6.28;;;;;;;5.74;92.76;98951.53;5018408;28;20034;-80
2023/01/04 09:04:22;;;;;;;9.48;6.75;;;;;;;5.72;92.83;98941.13;5030026;28;20104;-80
2023/01/04 09:06:48;;;;;;;8.43;5.45;;;;;;;5.71;92.50;98944.81;5025943;28;20029;-81
2023/01/04 09:09:14;;;;;;;8.27;5.93;;;;;;;5.77;92.98;98945.78;5013279;28;20512;-81
2023/01/04 09:11:39;;;;;;;7.97;5.88;;;;;;;5.80;92.91;98945.38;5026923;28;20037;-80
2023/01/04 09:14:07;;;;;;;8.40;6.03;;;;;;;5.87;92.03;98936.38;5050678;28;20091;-81
2023/01/04 09:16:33;;;;;;;9.23;4.20;;;;;;;5.83;92.98;98929.06;5010208;28;20079;-81
2023/01/04 09:18:58;;;;;;;10.07;5.82;;;;;;;5.77;92.96;98911.34;5019756;28;20026;-81
2023/01/04 09:21:23;;;;;;;7.88;5.80;;;;;;;5.77;92.34;98920.13;5023597;28;20567;-80
2023/01/04 09:23:49;;;;;;;8.50;5.65;;;;;;;5.89;92.21;98933.50;5026959;28;20029;-79
2023/01/04 09:26:21;;;;;;;7.85;5.30;;;;;;;5.78;92.45;98916.47;5009331;28;20041;-79
2023/01/04 09:28:56;;;;;;;10.35;6.63;;;;;;;5.77;93.21;98917.47;5024269;28;20164;-79
2023/01/04 09:31:24;;;;;;;14.25;7.18;;;;;;;5.79;92.44;98918.06;5007159;28;20032;-80
2023/01/04 09:33:50;;;;;;;11.55;6.90;;;;;;;5.80;92.42;98910.94;5019803;28;20044;-80
2023/01/04 09:36:17;;;;;;;9.32;7.63;;;;;;;5.83;93.24;98913.16;5042777;28;20033;-80
2023/01/04 09:38:42;;;;;;;10.70;7.03;;;;;;;5.78;92.61;98889.16;5029820;28;20396;-81
2023/01/04 09:41:14;;;;;;;9.10;6.97;;;;;;;5.90;93.00;98882.16;4994180;28;20041;-81
2023/01/04 09:43:51;;;;;;;9.48;6.85;;;;;;;5.88;92.90;98858.53;5032315;28;20508;-81
2023/01/04 09:46:21;;;;;;;12.02;6.60;;;;;;;5.87;92.74;98861.41;5015891;28;20056;-81
2023/01/04 09:48:47;;;;;;;9.10;6.53;;;;;;;5.91;93.09;98881.94;5027008;28;20025;-81
2023/01/04 09:51:18;;;;;;;7.68;5.63;;;;;;;5.78;93.18;98868.78;5028056;28;20099;-81
2023/01/04 09:53:48;;;;;;;6.90;5.30;;;;;;;5.74;94.43;98870.25;5030153;28;20038;-81
2023/01/04 09:56:22;;;;;;;9.27;5.18;;;;;;;5.81;93.90;98878.94;5031490;28;20033;-81
2023/01/04 09:58:49;;;;;;;6.78;5.13;;;;;;;5.78;94.77;98878.56;5028516;28;20026;-81
2023/01/04 10:01:18;;;;;;;6.80;4.53;;;;;;;5.82;94.50;98893.81;5012721;28;20044;-81
2023/01/04 10:04:00;;;;;;;11.27;6.22;;;;;;;5.83;93.59;98870.78;5030418;28;20041;-80
2023/01/04 10:06:26;;;;;;;8.38;6.00;;;;;;;5.95;92.81;98871.72;5021350;28;20062;-80
2023/01/04 10:08:52;;;;;;;6.93;5.70;;;;;;;5.85;93.57;98880.16;5042426;28;20468;-80
2023/01/04 10:11:42;;;;;;;7.30;5.60;;;;;;;5.91;93.68;98879.31;5011843;28;20116;-81
2023/01/04 10:14:37;;;;;;;6.15;5.15;;;;;;;5.90;94.17;98872.38;5034909;28;20083;-80
2023/01/04 10:17:12;;;;;;;8.60;5.75;;;;;;;5.93;93.92;98860.53;5010630;28;20063;-81
2023/01/04 10:19:55;;;;;;;9.03;6.43;;;;;;;5.96;93.17;98874.13;5024406;28;20056;-81
2023/01/04 10:22:42;;;;;;;5.13;3.88;;;;;;;6.03;93.68;98869.59;5026479;28;20770;-81
2023/01/04 10:25:14;;;;;;;7.15;4.90;;;;;;;6.01;93.69;98870.84;5031484;28;20029;-80
2023/01/04 10:27:58;;;;;;;6.45;5.50;;;;;;;6.05;94.57;98867.53;5029790;28;20033;-80
2023/01/04 10:30:41;;;;;;;4.82;3.83;;;;;;;6.03;93.96;98845.75;5029008;28;20541;-80
2023/01/04 10:33:20;;;;;;;3.45;2.88;;;;;;;6.16;93.57;98849.31;5027879;28;20108;-80
2023/01/04 10:35:47;;;;;;;5.22;4.10;;;;;;;6.10;93.72;98845.69;5015819;28;20389;-80
2023/01/04 10:38:41;;;;;;;5.93;4.85;;;;;;;6.12;93.94;98842.81;5027545;28;20096;-81
2023/01/04 10:41:12;;;;;;;6.95;4.65;;;;;;;6.10;94.00;98834.28;5043798;28;20037;-81
2023/01/04 10:43:55;;;;;;;3.90;3.15;;;;;;;6.10;93.46;98813.06;5031699;28;20071;-80
2023/01/04 10:46:44;;;;;;;5.32;4.25;;;;;;;6.14;94.28;98830.19;5030839;28;20558;-80
2023/01/04 10:49:22;;;;;;;7.10;3.78;;;;;;;6.15;93.67;98837.91;5023954;28;20472;-81
2023/01/04 10:52:19;;;;;;;6.25;4.05;;;;;;;6.09;94.01;98824.72;5026838;28;20445;-81
2023/01/04 10:54:56;;;;;;;5.10;3.67;;;;;;;5.99;94.69;98828.69;4987792;28;20497;-81
2023/01/04 10:57:32;;;;;;;3.67;2.90;;;;;;;6.11;93.58;98812.88;5030271;28;20091;-82
2023/01/04 11:00:01;;;;;;;4.22;3.53;;;;;;;6.22;94.04;98806.84;5029379;28;20100;-80
2023/01/04 11:02:47;;;;;;;6.28;4.07;;;;;;;6.20;94.27;98814.22;5028886;28;20033;-81
2023/01/04 11:05:24;;;;;;;4.53;4.00;;;;;;;6.33;93.86;98810.59;5030654;28;20029;-81
2023/01/04 11:08:09;;;;;;;5.55;4.00;;;;;;;6.19;94.12;98796.66;5022852;28;20386;-80
2023/01/04 11:10:52;;;;;;;4.70;3.53;;;;;;;6.26;94.00;98791.28;5027397;28;20550;-80
2023/01/04 11:13:17;;;;;;;4.90;3.00;;;;;;;6.30;94.60;98792.47;5050259;28;20033;-80
2023/01/04 11:15:44;;;;;;;6.00;2.72;;;;;;;6.30;95.01;98803.06;5006138;28;20033;-80
2023/01/04 11:18:12;;;;;;;6.78;3.65;;;;;;;6.30;94.59;98797.75;5007188;28;20073;-81
2023/01/04 11:20:38;;;;;;;3.30;2.92;;;;;;;6.24;94.73;98788.06;5022363;28;20029;-81
2023/01/04 11:23:09;;;;;;;4.28;3.88;;;;;;;6.30;95.12;98787.16;5026250;28;20551;-81
2023/01/04 11:25:40;;;;;;;5.28;2.95;;;;;;;6.28;95.53;98762.72;5021777;28;20552;-79
2023/01/04 11:28:22;;;;;;;4.75;3.60;;;;;;;6.31;94.95;98762.28;5023039;28;20064;-80
2023/01/04 11:30:53;;;;;;;3.15;2.25;;;;;;;6.35;95.28;98758.97;5019487;28;20481;-80
2023/01/04 11:33:22;;;;;;;4.25;2.25;;;;;;;6.29;94.64;98754.53;5023279;28;20072;-80
2023/01/04 11:35:57;;;;;;;2.05;1.90;;;;;;;6.37;95.56;98772.00;5025172;28;20030;-80
2023/01/04 11:38:28;;;;;;;2.90;2.67;;;;;;;6.40;95.46;98774.22;5028868;28;20091;-79
2023/01/04 11:41:01;;;;;;;3.42;2.70;;;;;;;6.39;95.30;98765.44;5026820;28;21911;-79
2023/01/04 11:43:29;;;;;;;2.03;1.75;;;;;;;6.40;96.08;98755.66;5028593;28;20026;-80
2023/01/04 11:46:04;;;;;;;2.15;1.95;;;;;;;6.36;95.91;98757.09;5020456;28;20104;-79
2023/01/04 11:48:33;;;;;;;2.50;2.30;;;;;;;6.43;95.81;98766.63;5009169;28;20152;-80
2023/01/04 11:50:59;;;;;;;4.10;2.60;;;;;;;6.38;96.23;98753.22;5023652;28;20501;-80
2023/01/04 11:53:29;;;;;;;2.53;2.20;;;;;;;6.41;96.10;98746.66;4984395;28;20037;-80
2023/01/04 11:56:08;;;;;;;1.92;1.80;;;;;;;6.42;96.10;98743.00;5026106;28;20144;-81
2023/01/04 11:58:33;;;;;;;3.83;2.60;;;;;;;6.33;96.79;98720.47;5028756;28;20037;-80
2023/01/04 12:00:59;;;;;;;2.05;1.85;;;;;;;6.47;95.58;98712.09;5024328;28;20043;-80
2023/01/04 12:03:24;;;;;;;1.83;1.55;;;;;;;6.46;96.00;98728.25;5004639;28;20037;-80
2023/01/04 12:05:50;;;;;;;3.08;2.50;;;;;;;6.47;96.46;98714.75;5021718;28;20079;-80
2023/01/04 12:08:28;;;;;;;3.22;2.47;;;;;;;6.44;96.08;98707.28;5023875;28;20416;-80
2023/01/04 12:10:54;;;;;;;3.92;3.28;;;;;;;6.41;97.62;98683.03;5022250;28;20036;-80
2023/01/04 12:13:20;;;;;;;3.95;3.42;;;;;;;6.41;97.94;98683.03;5008779;28;20029;-80
2023/01/04 12:15:58;;;;;;;4.63;3.00;;;;;;;6.38;97.47;98672.88;5012252;28;20406;-81
2023/01/04 12:18:36;;;;;;;5.13;3.95;;;;;;;6.51;97.42;98688.63;5022282;28;20076;-82
2023/01/04 12:21:02;;;;;;;8.40;4.13;;;;;;;6.54;96.69;98662.44;5023670;28;20048;-81
2023/01/04 12:23:28;;;;;;;5.72;4.30;;;;;;;6.63;96.88;98666.41;5020983;28;20506;-82
2023/01/04 12:25:54;;;;;;;10.25;3.92;;;;;;;6.62;95.72;98677.22;5024065;28;20030;-82
2023/01/04 12:28:52;;;;;;;4.80;3.85;;;;;;;6.46;97.30;98644.22;5023378;28;20033;-82
2023/01/04 12:31:18;;;;;;;3.05;2.80;;;;;;;6.59;96.62;98651.97;5029043;28;20445;-82
2023/01/04 12:33:57;;;;;;;4.15;3.60;;;;;;;6.56;97.00;98648.97;5025503;28;20178;-81
2023/01/04 12:36:37;;;;;;;7.97;3.80;;;;;;;6.74;96.16;98651.53;5011610;28;20187;-81
2023/01/04 12:39:15;;;;;;;3.78;3.00;;;;;;;6.65;96.67;98643.09;5025558;28;20051;-81
2023/01/04 12:41:40;;;;;;;5.03;3.97;;;;;;;6.65;97.56;98637.00;5043255;28;20477;-81